sensor_id;sensor_type;location;lat;lon;timestamp;pressure;altitude;pressure_sealevel;temperature;humidity
11808;BME280;5961;42.640;23.380;2023-05-24T00:00:53;93861.97;;;16.46;73.68
11808;BME280;5961;42.640;23.380;2023-05-24T00:03:20;93856.97;;;16.44;73.75
11808;BME280;5961;42.640;23.380;2023-05-24T00:05:48;93857.88;;;16.56;74.15
11808;BME280;5961;42.640;23.380;2023-05-24T00:08:16;93855.59;;;16.61;73.96
11808;BME280;5961;42.640;23.380;2023-05-24T00:10:43;93853.31;;;16.63;74.15
11808;BME280;5961;42.640;23.380;2023-05-24T00:13:10;93862.94;;;16.68;74.52
11808;BME280;5961;42.640;23.380;2023-05-24T00:15:36;93856.03;;;16.70;75.11
11808;BME280;5961;42.640;23.380;2023-05-24T00:18:03;93863.72;;;16.75;74.82
11808;BME280;5961;42.640;23.380;2023-05-24T00:20:30;93856.88;;;16.81;74.69
11808;BME280;5961;42.640;23.380;2023-05-24T00:22:58;93858.78;;;16.84;74.31
11808;BME280;5961;42.640;23.380;2023-05-24T00:25:24;93855.72;;;16.82;73.68
11808;BME280;5961;42.640;23.380;2023-05-24T00:27:51;93861.13;;;16.89;73.08
11808;BME280;5961;42.640;23.380;2023-05-24T00:30:18;93861.09;;;16.82;72.92
11808;BME280;5961;42.640;23.380;2023-05-24T00:32:45;93858.00;;;16.80;72.73
11808;BME280;5961;42.640;23.380;2023-05-24T00:35:11;93862.63;;;16.83;73.09
11808;BME280;5961;42.640;23.380;2023-05-24T00:37:38;93863.41;;;16.87;72.60
11808;BME280;5961;42.640;23.380;2023-05-24T00:40:11;93846.16;;;16.85;73.00
11808;BME280;5961;42.640;23.380;2023-05-24T00:42:38;93858.41;;;16.82;72.25
11808;BME280;5961;42.640;23.380;2023-05-24T00:45:05;93824.50;;;16.57;71.34
11808;BME280;5961;42.640;23.380;2023-05-24T00:47:32;93846.06;;;16.67;71.53
11808;BME280;5961;42.640;23.380;2023-05-24T00:49:59;93847.56;;;16.68;71.72
11808;BME280;5961;42.640;23.380;2023-05-24T00:52:26;93844.50;;;16.66;72.52
11808;BME280;5961;42.640;23.380;2023-05-24T00:54:53;93856.81;;;16.71;73.71
11808;BME280;5961;42.640;23.380;2023-05-24T00:57:21;93846.44;;;16.69;73.90
11808;BME280;5961;42.640;23.380;2023-05-24T00:59:49;93852.53;;;16.63;73.68
11808;BME280;5961;42.640;23.380;2023-05-24T01:02:16;93852.56;;;16.66;72.56
11808;BME280;5961;42.640;23.380;2023-05-24T01:04:43;93848.28;;;16.55;73.21
11808;BME280;5961;42.640;23.380;2023-05-24T01:07:17;93850.97;;;16.55;73.52
11808;BME280;5961;42.640;23.380;2023-05-24T01:09:57;93846.19;;;16.34;74.05
11808;BME280;5961;42.640;23.380;2023-05-24T01:12:38;93847.72;;;16.35;74.83
11808;BME280;5961;42.640;23.380;2023-05-24T01:15:21;93853.00;;;16.24;75.45
11808;BME280;5961;42.640;23.380;2023-05-24T01:17:53;93846.88;;;16.24;75.48
11808;BME280;5961;42.640;23.380;2023-05-24T01:20:25;93846.72;;;16.06;76.33
11808;BME280;5961;42.640;23.380;2023-05-24T01:23:25;93857.03;;;16.01;76.61
11808;BME280;5961;42.640;23.380;2023-05-24T01:26:05;93839.97;;;15.79;77.00
11808;BME280;5961;42.640;23.380;2023-05-24T01:28:38;93858.81;;;15.86;77.33
11808;BME280;5961;42.640;23.380;2023-05-24T01:31:05;93860.34;;;15.87;77.71
11808;BME280;5961;42.640;23.380;2023-05-24T01:33:32;93873.44;;;15.96;77.29
11808;BME280;5961;42.640;23.380;2023-05-24T01:35:59;93870.78;;;15.99;76.88
11808;BME280;5961;42.640;23.380;2023-05-24T01:38:25;93871.94;;;16.02;76.74
11808;BME280;5961;42.640;23.380;2023-05-24T01:41:04;93863.53;;;16.00;76.70
11808;BME280;5961;42.640;23.380;2023-05-24T01:43:38;93866.19;;;16.00;76.96
11808;BME280;5961;42.640;23.380;2023-05-24T01:46:12;93863.56;;;16.03;76.68
11808;BME280;5961;42.640;23.380;2023-05-24T01:48:50;93865.09;;;16.08;76.70
11808;BME280;5961;42.640;23.380;2023-05-24T01:51:22;93868.13;;;16.03;77.14
11808;BME280;5961;42.640;23.380;2023-05-24T01:53:49;93873.59;;;16.13;76.55
11808;BME280;5961;42.640;23.380;2023-05-24T01:56:18;93859.00;;;16.11;76.42
11808;BME280;5961;42.640;23.380;2023-05-24T01:58:49;93859.81;;;16.15;76.08
11808;BME280;5961;42.640;23.380;2023-05-24T02:01:18;93863.16;;;16.05;75.54
11808;BME280;5961;42.640;23.380;2023-05-24T02:03:45;93849.69;;;15.94;75.55
11808;BME280;5961;42.640;23.380;2023-05-24T02:06:11;93855.06;;;15.94;76.36
11808;BME280;5961;42.640;23.380;2023-05-24T02:08:38;93849.59;;;15.83;77.07
11808;BME280;5961;42.640;23.380;2023-05-24T02:11:05;93845.03;;;15.87;77.02
11808;BME280;5961;42.640;23.380;2023-05-24T02:13:31;93861.16;;;15.91;76.90
11808;BME280;5961;42.640;23.380;2023-05-24T02:15:59;93855.75;;;15.87;76.70
11808;BME280;5961;42.640;23.380;2023-05-24T02:18:26;93853.47;;;15.89;76.33
11808;BME280;5961;42.640;23.380;2023-05-24T02:20:58;93844.22;;;15.83;75.72
11808;BME280;5961;42.640;23.380;2023-05-24T02:23:25;93844.84;;;15.66;76.43
11808;BME280;5961;42.640;23.380;2023-05-24T02:25:52;93852.03;;;15.59;77.24
11808;BME280;5961;42.640;23.380;2023-05-24T02:28:18;93847.66;;;15.44;77.97
11808;BME280;5961;42.640;23.380;2023-05-24T02:30:45;93843.56;;;15.20;79.94
11808;BME280;5961;42.640;23.380;2023-05-24T02:33:13;93842.78;;;15.19;80.01
11808;BME280;5961;42.640;23.380;2023-05-24T02:35:40;93840.38;;;15.11;80.65
11808;BME280;5961;42.640;23.380;2023-05-24T02:38:07;93845.00;;;15.14;80.21
11808;BME280;5961;42.640;23.380;2023-05-24T02:40:34;93846.88;;;15.10;79.90
11808;BME280;5961;42.640;23.380;2023-05-24T02:43:00;93843.31;;;14.99;79.91
11808;BME280;5961;42.640;23.380;2023-05-24T02:45:27;93840.59;;;14.95;79.86
11808;BME280;5961;42.640;23.380;2023-05-24T02:47:53;93835.56;;;14.94;79.87
11808;BME280;5961;42.640;23.380;2023-05-24T02:50:21;93842.38;;;14.88;79.86
11808;BME280;5961;42.640;23.380;2023-05-24T02:52:48;93833.78;;;14.71;79.14
11808;BME280;5961;42.640;23.380;2023-05-24T02:55:15;93844.16;;;14.76;78.37
11808;BME280;5961;42.640;23.380;2023-05-24T02:57:42;93840.56;;;14.65;77.90
11808;BME280;5961;42.640;23.380;2023-05-24T03:00:10;93836.56;;;14.52;78.66
11808;BME280;5961;42.640;23.380;2023-05-24T03:02:37;93836.88;;;14.47;79.17
11808;BME280;5961;42.640;23.380;2023-05-24T03:05:05;93841.28;;;14.36;80.28
11808;BME280;5961;42.640;23.380;2023-05-24T03:07:34;93849.25;;;14.33;80.71
11808;BME280;5961;42.640;23.380;2023-05-24T03:10:01;93845.28;;;14.23;81.09
11808;BME280;5961;42.640;23.380;2023-05-24T03:12:27;93845.09;;;14.12;81.79
11808;BME280;5961;42.640;23.380;2023-05-24T03:14:54;93851.16;;;14.09;82.07
11808;BME280;5961;42.640;23.380;2023-05-24T03:17:21;93861.72;;;14.02;81.98
11808;BME280;5961;42.640;23.380;2023-05-24T03:19:47;93866.31;;;14.02;82.67
11808;BME280;5961;42.640;23.380;2023-05-24T03:22:15;93858.34;;;14.05;83.10
11808;BME280;5961;42.640;23.380;2023-05-24T03:24:43;93858.53;;;14.16;83.30
11808;BME280;5961;42.640;23.380;2023-05-24T03:27:10;93862.50;;;14.25;82.72
11808;BME280;5961;42.640;23.380;2023-05-24T03:29:37;93856.50;;;14.32;81.17
11808;BME280;5961;42.640;23.380;2023-05-24T03:32:04;93868.03;;;14.36;80.58
11808;BME280;5961;42.640;23.380;2023-05-24T03:34:31;93870.09;;;14.23;80.39
11808;BME280;5961;42.640;23.380;2023-05-24T03:36:57;93875.94;;;14.29;80.32
11808;BME280;5961;42.640;23.380;2023-05-24T03:39:24;93873.66;;;14.31;80.60
11808;BME280;5961;42.640;23.380;2023-05-24T03:41:52;93872.81;;;14.27;80.96
11808;BME280;5961;42.640;23.380;2023-05-24T03:44:18;93875.56;;;14.30;81.34
11808;BME280;5961;42.640;23.380;2023-05-24T03:46:45;93880.22;;;14.34;81.71
11808;BME280;5961;42.640;23.380;2023-05-24T03:49:12;93873.84;;;14.42;82.21
11808;BME280;5961;42.640;23.380;2023-05-24T03:51:38;93872.38;;;14.44;82.26
11808;BME280;5961;42.640;23.380;2023-05-24T03:54:05;93873.84;;;14.42;83.12
11808;BME280;5961;42.640;23.380;2023-05-24T03:56:32;93873.84;;;14.42;83.13
11808;BME280;5961;42.640;23.380;2023-05-24T03:59:00;93880.66;;;14.39;83.14
11808;BME280;5961;42.640;23.380;2023-05-24T04:01:28;93863.31;;;14.29;83.76
11808;BME280;5961;42.640;23.380;2023-05-24T04:03:56;93884.50;;;14.38;83.38
11808;BME280;5961;42.640;23.380;2023-05-24T04:06:23;93883.88;;;14.48;83.63
11808;BME280;5961;42.640;23.380;2023-05-24T04:08:53;93886.25;;;14.53;83.52
11808;BME280;5961;42.640;23.380;2023-05-24T04:11:20;93886.00;;;14.62;83.05
11808;BME280;5961;42.640;23.380;2023-05-24T04:13:48;93885.00;;;14.73;82.53
11808;BME280;5961;42.640;23.380;2023-05-24T04:16:16;93882.31;;;14.73;81.97
11808;BME280;5961;42.640;23.380;2023-05-24T04:18:43;93880.16;;;14.82;81.10
11808;BME280;5961;42.640;23.380;2023-05-24T04:21:10;93881.22;;;14.78;80.04
11808;BME280;5961;42.640;23.380;2023-05-24T04:23:37;93891.06;;;14.70;81.00
11808;BME280;5961;42.640;23.380;2023-05-24T04:26:04;93894.31;;;14.83;81.17
11808;BME280;5961;42.640;23.380;2023-05-24T04:28:31;93835.84;;;14.55;81.38
11808;BME280;5961;42.640;23.380;2023-05-24T04:30:58;93891.00;;;14.93;81.89
11808;BME280;5961;42.640;23.380;2023-05-24T04:33:26;93895.28;;;14.98;81.46
11808;BME280;5961;42.640;23.380;2023-05-24T04:35:53;93892.69;;;15.05;81.41
11808;BME280;5961;42.640;23.380;2023-05-24T04:38:20;93890.41;;;15.07;80.94
11808;BME280;5961;42.640;23.380;2023-05-24T04:40:47;93893.19;;;15.14;79.97
11808;BME280;5961;42.640;23.380;2023-05-24T04:43:14;93891.69;;;15.16;79.70
11808;BME280;5961;42.640;23.380;2023-05-24T04:45:40;93914.78;;;15.28;79.44
11808;BME280;5961;42.640;23.380;2023-05-24T04:48:07;93907.88;;;15.27;79.93
11808;BME280;5961;42.640;23.380;2023-05-24T04:50:35;93921.81;;;15.39;79.89
11808;BME280;5961;42.640;23.380;2023-05-24T04:53:02;93915.38;;;15.44;80.09
11808;BME280;5961;42.640;23.380;2023-05-24T04:55:28;93924.72;;;15.57;80.74
11808;BME280;5961;42.640;23.380;2023-05-24T04:57:55;93899.47;;;15.58;80.39
11808;BME280;5961;42.640;23.380;2023-05-24T05:00:22;93914.97;;;15.75;80.00
11808;BME280;5961;42.640;23.380;2023-05-24T05:02:49;93913.16;;;15.83;80.04
11808;BME280;5961;42.640;23.380;2023-05-24T05:05:15;93923.88;;;15.86;80.46
11808;BME280;5961;42.640;23.380;2023-05-24T05:07:45;93922.00;;;15.90;79.49
11808;BME280;5961;42.640;23.380;2023-05-24T05:10:11;93926.63;;;15.93;79.26
11808;BME280;5961;42.640;23.380;2023-05-24T05:12:38;93928.97;;;15.95;79.69
11808;BME280;5961;42.640;23.380;2023-05-24T05:15:06;93920.94;;;15.99;80.62
11808;BME280;5961;42.640;23.380;2023-05-24T05:17:33;93924.81;;;16.05;81.50
11808;BME280;5961;42.640;23.380;2023-05-24T05:19:59;93923.34;;;16.07;82.57
11808;BME280;5961;42.640;23.380;2023-05-24T05:22:26;93922.63;;;16.14;83.29
11808;BME280;5961;42.640;23.380;2023-05-24T05:24:54;93922.63;;;16.14;83.96
11808;BME280;5961;42.640;23.380;2023-05-24T05:27:21;93920.38;;;16.19;83.84
11808;BME280;5961;42.640;23.380;2023-05-24T05:29:48;93929.22;;;16.23;83.82
11808;BME280;5961;42.640;23.380;2023-05-24T05:32:15;93935.03;;;16.32;83.67
11808;BME280;5961;42.640;23.380;2023-05-24T05:34:41;93930.53;;;16.40;83.57
11808;BME280;5961;42.640;23.380;2023-05-24T05:37:08;93928.31;;;16.49;83.56
11808;BME280;5961;42.640;23.380;2023-05-24T05:39:35;93928.69;;;16.51;83.41
11808;BME280;5961;42.640;23.380;2023-05-24T05:42:03;93933.75;;;16.60;82.24
11808;BME280;5961;42.640;23.380;2023-05-24T05:44:30;93931.16;;;16.67;81.37
11808;BME280;5961;42.640;23.380;2023-05-24T05:46:57;93938.47;;;16.73;80.67
11808;BME280;5961;42.640;23.380;2023-05-24T05:49:23;93935.09;;;16.80;78.87
11808;BME280;5961;42.640;23.380;2023-05-24T05:51:50;93939.25;;;16.77;77.15
11808;BME280;5961;42.640;23.380;2023-05-24T05:54:17;93943.13;;;16.83;77.20
11808;BME280;5961;42.640;23.380;2023-05-24T05:56:44;93941.66;;;16.89;76.89
11808;BME280;5961;42.640;23.380;2023-05-24T05:59:14;93931.31;;;16.91;76.95
11808;BME280;5961;42.640;23.380;2023-05-24T06:01:41;93946.31;;;16.99;75.94
11808;BME280;5961;42.640;23.380;2023-05-24T06:04:08;93924.84;;;16.99;74.12
11808;BME280;5961;42.640;23.380;2023-05-24T06:06:34;93934.91;;;17.13;74.17
11808;BME280;5961;42.640;23.380;2023-05-24T06:09:01;93950.28;;;17.23;74.17
11808;BME280;5961;42.640;23.380;2023-05-24T06:11:28;93951.13;;;17.31;75.07
11808;BME280;5961;42.640;23.380;2023-05-24T06:13:54;93958.06;;;17.39;74.85
11808;BME280;5961;42.640;23.380;2023-05-24T06:16:22;93950.41;;;17.44;74.53
11808;BME280;5961;42.640;23.380;2023-05-24T06:18:49;93951.28;;;17.56;74.03
11808;BME280;5961;42.640;23.380;2023-05-24T06:21:16;93919.31;;;17.40;73.52
11808;BME280;5961;42.640;23.380;2023-05-24T06:23:43;93949.41;;;17.70;73.54
11808;BME280;5961;42.640;23.380;2023-05-24T06:26:09;93954.03;;;17.80;73.64
11808;BME280;5961;42.640;23.380;2023-05-24T06:28:36;93954.44;;;17.89;73.51
11808;BME280;5961;42.640;23.380;2023-05-24T06:31:04;93944.47;;;17.93;72.79
11808;BME280;5961;42.640;23.380;2023-05-24T06:33:32;93956.81;;;18.05;73.11
11808;BME280;5961;42.640;23.380;2023-05-24T06:35:58;93947.97;;;18.12;72.68
11808;BME280;5961;42.640;23.380;2023-05-24T06:38:26;93944.16;;;18.13;72.51
11808;BME280;5961;42.640;23.380;2023-05-24T06:40:53;93955.31;;;18.22;72.46
11808;BME280;5961;42.640;23.380;2023-05-24T06:43:20;93956.09;;;18.33;72.55
11808;BME280;5961;42.640;23.380;2023-05-24T06:45:47;93946.13;;;18.37;72.03
11808;BME280;5961;42.640;23.380;2023-05-24T06:48:13;93954.59;;;18.46;71.12
11808;BME280;5961;42.640;23.380;2023-05-24T06:50:41;93945.00;;;18.52;70.75
11808;BME280;5961;42.640;23.380;2023-05-24T06:53:09;93940.75;;;18.51;70.53
11808;BME280;5961;42.640;23.380;2023-05-24T06:55:35;93939.59;;;18.55;70.23
11808;BME280;5961;42.640;23.380;2023-05-24T06:58:02;93948.81;;;18.61;70.49
11808;BME280;5961;42.640;23.380;2023-05-24T07:00:31;93943.44;;;18.69;70.71
11808;BME280;5961;42.640;23.380;2023-05-24T07:02:58;93946.16;;;18.72;70.53
11808;BME280;5961;42.640;23.380;2023-05-24T07:05:25;93948.44;;;18.81;70.02
11808;BME280;5961;42.640;23.380;2023-05-24T07:07:53;93942.66;;;18.89;69.14
11808;BME280;5961;42.640;23.380;2023-05-24T07:10:19;93949.19;;;18.95;69.11
11808;BME280;5961;42.640;23.380;2023-05-24T07:12:46;93945.75;;;18.98;68.05
11808;BME280;5961;42.640;23.380;2023-05-24T07:15:13;93952.28;;;19.04;66.89
11808;BME280;5961;42.640;23.380;2023-05-24T07:17:39;93939.94;;;19.10;66.78
11808;BME280;5961;42.640;23.380;2023-05-24T07:20:07;93949.19;;;19.16;66.85
11808;BME280;5961;42.640;23.380;2023-05-24T07:22:35;93952.25;;;19.22;67.87
11808;BME280;5961;42.640;23.380;2023-05-24T07:25:04;93953.00;;;19.30;68.21
11808;BME280;5961;42.640;23.380;2023-05-24T07:27:30;93950.69;;;19.32;67.79
11808;BME280;5961;42.640;23.380;2023-05-24T07:29:57;93958.38;;;19.40;68.64
11808;BME280;5961;42.640;23.380;2023-05-24T07:32:24;93951.06;;;19.41;69.79
11808;BME280;5961;42.640;23.380;2023-05-24T07:34:51;93959.50;;;19.50;69.57
11808;BME280;5961;42.640;23.380;2023-05-24T07:37:18;93945.69;;;19.44;69.09
11808;BME280;5961;42.640;23.380;2023-05-24T07:39:48;93947.19;;;19.56;68.38
11808;BME280;5961;42.640;23.380;2023-05-24T07:42:16;93951.41;;;19.64;68.58
11808;BME280;5961;42.640;23.380;2023-05-24T07:44:43;93958.72;;;19.67;68.68
11808;BME280;5961;42.640;23.380;2023-05-24T07:47:09;93950.59;;;19.70;68.36
11808;BME280;5961;42.640;23.380;2023-05-24T07:49:36;93953.28;;;19.74;67.82
11808;BME280;5961;42.640;23.380;2023-05-24T07:52:03;93954.03;;;19.75;66.92
11808;BME280;5961;42.640;23.380;2023-05-24T07:54:30;93953.25;;;19.85;67.39
11808;BME280;5961;42.640;23.380;2023-05-24T07:56:57;93908.66;;;19.59;67.42
11808;BME280;5961;42.640;23.380;2023-05-24T07:59:25;93953.19;;;19.92;68.72
11808;BME280;5961;42.640;23.380;2023-05-24T08:01:51;93950.88;;;19.94;67.66
11808;BME280;5961;42.640;23.380;2023-05-24T08:04:18;93947.41;;;19.97;66.68
11808;BME280;5961;42.640;23.380;2023-05-24T08:06:45;93947.41;;;20.00;65.06
11808;BME280;5961;42.640;23.380;2023-05-24T08:09:11;93950.44;;;20.06;64.02
11808;BME280;5961;42.640;23.380;2023-05-24T08:11:38;93944.63;;;20.07;62.27
11808;BME280;5961;42.640;23.380;2023-05-24T08:14:06;93951.16;;;20.13;62.19
11808;BME280;5961;42.640;23.380;2023-05-24T08:16:34;93944.19;;;20.19;62.40
11808;BME280;5961;42.640;23.380;2023-05-24T08:19:00;93952.63;;;20.25;63.03
11808;BME280;5961;42.640;23.380;2023-05-24T08:21:27;93952.63;;;20.29;61.56
11808;BME280;5961;42.640;23.380;2023-05-24T08:23:54;93944.88;;;20.34;61.28
11808;BME280;5961;42.640;23.380;2023-05-24T08:26:21;93954.16;;;20.37;60.16
11808;BME280;5961;42.640;23.380;2023-05-24T08:28:48;93947.56;;;20.41;59.76
11808;BME280;5961;42.640;23.380;2023-05-24T08:31:15;93944.81;;;20.48;59.81
11808;BME280;5961;42.640;23.380;2023-05-24T08:33:43;93941.31;;;20.51;59.53
11808;BME280;5961;42.640;23.380;2023-05-24T08:36:10;93947.44;;;20.59;58.57
11808;BME280;5961;42.640;23.380;2023-05-24T08:38:36;93943.22;;;20.58;58.56
11808;BME280;5961;42.640;23.380;2023-05-24T08:41:05;93955.41;;;20.73;58.78
11808;BME280;5961;42.640;23.380;2023-05-24T08:43:32;93944.59;;;20.76;53.27
11808;BME280;5961;42.640;23.380;2023-05-24T08:46:01;93947.63;;;20.82;51.92
11808;BME280;5961;42.640;23.380;2023-05-24T08:48:29;93944.50;;;20.87;52.71
11808;BME280;5961;42.640;23.380;2023-05-24T08:50:57;93955.28;;;20.91;51.46
11808;BME280;5961;42.640;23.380;2023-05-24T08:53:25;93952.16;;;20.96;50.30
11808;BME280;5961;42.640;23.380;2023-05-24T08:55:53;93948.22;;;21.00;49.51
11808;BME280;5961;42.640;23.380;2023-05-24T08:58:20;93940.88;;;21.04;47.52
11808;BME280;5961;42.640;23.380;2023-05-24T09:00:47;93942.38;;;21.12;47.89
11808;BME280;5961;42.640;23.380;2023-05-24T09:03:14;93945.81;;;21.16;48.64
11808;BME280;5961;42.640;23.380;2023-05-24T09:05:43;93943.44;;;21.22;48.49
11808;BME280;5961;42.640;23.380;2023-05-24T09:08:11;93923.75;;;21.21;50.03
11808;BME280;5961;42.640;23.380;2023-05-24T09:10:42;93943.31;;;21.36;49.53
11808;BME280;5961;42.640;23.380;2023-05-24T09:13:11;93942.88;;;21.41;48.68
11808;BME280;5961;42.640;23.380;2023-05-24T09:15:40;93948.59;;;21.47;47.30
11808;BME280;5961;42.640;23.380;2023-05-24T09:18:06;93951.22;;;21.54;48.80
11808;BME280;5961;42.640;23.380;2023-05-24T09:20:33;93942.28;;;21.60;49.54
11808;BME280;5961;42.640;23.380;2023-05-24T09:23:00;93942.28;;;21.60;49.75
11808;BME280;5961;42.640;23.380;2023-05-24T09:25:29;93947.22;;;21.65;46.75
11808;BME280;5961;42.640;23.380;2023-05-24T09:27:56;93936.38;;;21.69;46.13
11808;BME280;5961;42.640;23.380;2023-05-24T09:30:23;93946.69;;;21.77;46.60
11808;BME280;5961;42.640;23.380;2023-05-24T09:32:54;93935.47;;;21.79;44.34
11808;BME280;5961;42.640;23.380;2023-05-24T09:35:21;93942.72;;;21.89;43.96
11808;BME280;5961;42.640;23.380;2023-05-24T09:37:48;93943.44;;;21.93;42.77
11808;BME280;5961;42.640;23.380;2023-05-24T09:40:18;93940.28;;;21.98;41.22
11808;BME280;5961;42.640;23.380;2023-05-24T09:42:47;93939.47;;;22.01;39.72
11808;BME280;5961;42.640;23.380;2023-05-24T09:45:16;93938.66;;;22.04;38.87
11808;BME280;5961;42.640;23.380;2023-05-24T09:47:43;93937.38;;;22.12;40.28
11808;BME280;5961;42.640;23.380;2023-05-24T09:50:12;93928.53;;;22.12;40.12
11808;BME280;5961;42.640;23.380;2023-05-24T09:52:39;93939.97;;;22.23;41.20
11808;BME280;5961;42.640;23.380;2023-05-24T09:55:10;93937.56;;;22.28;41.48
11808;BME280;5961;42.640;23.380;2023-05-24T09:57:38;93933.66;;;22.33;42.07
11808;BME280;5961;42.640;23.380;2023-05-24T10:00:07;93932.75;;;22.39;43.28
11808;BME280;5961;42.640;23.380;2023-05-24T10:02:41;93919.69;;;22.34;42.84
11808;BME280;5961;42.640;23.380;2023-05-24T10:05:09;93935.38;;;22.47;41.62
11808;BME280;5961;42.640;23.380;2023-05-24T10:07:36;93929.47;;;22.52;41.38
11808;BME280;5961;42.640;23.380;2023-05-24T10:10:05;93927.50;;;22.56;42.90
11808;BME280;5961;42.640;23.380;2023-05-24T10:12:32;93925.50;;;22.60;41.37
11808;BME280;5961;42.640;23.380;2023-05-24T10:15:00;93923.16;;;22.62;41.68
11808;BME280;5961;42.640;23.380;2023-05-24T10:17:29;93923.88;;;22.66;41.92
11808;BME280;5961;42.640;23.380;2023-05-24T10:19:56;93919.97;;;22.67;40.37
11808;BME280;5961;42.640;23.380;2023-05-24T10:22:23;93919.94;;;22.70;39.55
11808;BME280;5961;42.640;23.380;2023-05-24T10:24:52;93922.25;;;22.72;40.21
11808;BME280;5961;42.640;23.380;2023-05-24T10:27:25;93923.03;;;22.72;38.83
11808;BME280;5961;42.640;23.380;2023-05-24T10:29:58;93920.22;;;22.76;40.53
11808;BME280;5961;42.640;23.380;2023-05-24T10:32:28;93906.69;;;22.76;38.48
11808;BME280;5961;42.640;23.380;2023-05-24T10:34:57;93910.53;;;22.78;39.58
11808;BME280;5961;42.640;23.380;2023-05-24T10:37:24;93914.22;;;22.88;38.96
11808;BME280;5961;42.640;23.380;2023-05-24T10:39:51;93911.41;;;22.95;36.80
11808;BME280;5961;42.640;23.380;2023-05-24T10:42:18;93909.75;;;23.01;36.19
11808;BME280;5961;42.640;23.380;2023-05-24T10:44:45;93906.16;;;23.08;38.51
11808;BME280;5961;42.640;23.380;2023-05-24T10:47:13;93903.72;;;23.13;38.54
11808;BME280;5961;42.640;23.380;2023-05-24T10:49:48;93896.66;;;23.19;38.35
11808;BME280;5961;42.640;23.380;2023-05-24T10:52:17;93846.03;;;22.93;36.05
11808;BME280;5961;42.640;23.380;2023-05-24T10:55:03;93897.50;;;23.36;34.13
11808;BME280;5961;42.640;23.380;2023-05-24T10:57:30;93900.56;;;23.38;34.28
11808;BME280;5961;42.640;23.380;2023-05-24T11:00:26;93893.78;;;23.49;34.99
11808;BME280;5961;42.640;23.380;2023-05-24T11:02:58;93888.22;;;23.57;35.56
11808;BME280;5961;42.640;23.380;2023-05-24T11:05:33;93886.19;;;23.61;35.13
11808;BME280;5961;42.640;23.380;2023-05-24T11:08:00;93884.38;;;23.74;36.18
11808;BME280;5961;42.640;23.380;2023-05-24T11:10:31;93890.63;;;23.90;37.40
11808;BME280;5961;42.640;23.380;2023-05-24T11:12:59;93870.03;;;23.93;37.13
11808;BME280;5961;42.640;23.380;2023-05-24T11:15:26;93880.78;;;24.16;36.84
11808;BME280;5961;42.640;23.380;2023-05-24T11:18:12;93878.59;;;24.27;35.84
11808;BME280;5961;42.640;23.380;2023-05-24T11:20:41;93876.41;;;24.38;35.59
11808;BME280;5961;42.640;23.380;2023-05-24T11:23:08;93880.50;;;24.46;36.29
11808;BME280;5961;42.640;23.380;2023-05-24T11:25:36;93876.00;;;24.56;38.16
11808;BME280;5961;42.640;23.380;2023-05-24T11:28:05;93879.81;;;24.58;37.49
11808;BME280;5961;42.640;23.380;2023-05-24T11:30:32;93883.41;;;24.72;36.05
11808;BME280;5961;42.640;23.380;2023-05-24T11:32:59;93870.00;;;24.81;37.06
11808;BME280;5961;42.640;23.380;2023-05-24T11:35:27;93880.50;;;24.95;36.00
11808;BME280;5961;42.640;23.380;2023-05-24T11:37:55;93875.56;;;25.06;35.65
11808;BME280;5961;42.640;23.380;2023-05-24T11:40:22;93874.53;;;25.16;35.11
11808;BME280;5961;42.640;23.380;2023-05-24T11:42:49;93839.19;;;25.00;35.18
11808;BME280;5961;42.640;23.380;2023-05-24T11:45:16;93873.19;;;25.37;34.13
11808;BME280;5961;42.640;23.380;2023-05-24T11:47:43;93866.81;;;25.43;33.60
11808;BME280;5961;42.640;23.380;2023-05-24T11:50:14;93868.91;;;25.52;34.42
11808;BME280;5961;42.640;23.380;2023-05-24T11:52:41;93865.91;;;25.62;33.58
11808;BME280;5961;42.640;23.380;2023-05-24T11:55:11;93849.47;;;25.66;33.64
11808;BME280;5961;42.640;23.380;2023-05-24T11:57:44;93851.91;;;25.77;35.23
11808;BME280;5961;42.640;23.380;2023-05-24T12:00:23;93851.69;;;25.84;34.72
11808;BME280;5961;42.640;23.380;2023-05-24T12:02:49;93849.72;;;25.97;34.09
11808;BME280;5961;42.640;23.380;2023-05-24T12:05:17;93849.53;;;26.04;32.95
11808;BME280;5961;42.640;23.380;2023-05-24T12:07:44;93846.91;;;26.13;33.34
11808;BME280;5961;42.640;23.380;2023-05-24T12:10:14;93849.13;;;26.18;33.31
11808;BME280;5961;42.640;23.380;2023-05-24T12:12:42;93847.38;;;26.24;32.96
11808;BME280;5961;42.640;23.380;2023-05-24T12:15:10;93849.91;;;26.31;32.62
11808;BME280;5961;42.640;23.380;2023-05-24T12:17:39;93841.63;;;26.35;32.28
11808;BME280;5961;42.640;23.380;2023-05-24T12:20:08;93838.13;;;26.34;30.88
11808;BME280;5961;42.640;23.380;2023-05-24T12:22:36;93844.56;;;26.40;31.87
11808;BME280;5961;42.640;23.380;2023-05-24T12:25:03;93835.06;;;26.45;31.24
11808;BME280;5961;42.640;23.380;2023-05-24T12:27:31;93836.78;;;26.51;30.69
11808;BME280;5961;42.640;23.380;2023-05-24T12:30:05;93829.38;;;26.64;32.24
11808;BME280;5961;42.640;23.380;2023-05-24T12:32:34;93826.94;;;26.66;31.56
11808;BME280;5961;42.640;23.380;2023-05-24T12:35:03;93834.91;;;26.73;31.71
11808;BME280;5961;42.640;23.380;2023-05-24T12:37:30;93819.19;;;26.78;31.59
11808;BME280;5961;42.640;23.380;2023-05-24T12:39:59;93821.06;;;26.81;32.49
11808;BME280;5961;42.640;23.380;2023-05-24T12:42:29;93821.91;;;26.90;32.45
11808;BME280;5961;42.640;23.380;2023-05-24T12:44:57;93825.47;;;27.00;31.93
11808;BME280;5961;42.640;23.380;2023-05-24T12:47:24;93820.03;;;27.00;31.36
11808;BME280;5961;42.640;23.380;2023-05-24T12:49:51;93821.28;;;27.08;31.82
11808;BME280;5961;42.640;23.380;2023-05-24T12:52:17;93816.38;;;27.15;31.63
11808;BME280;5961;42.640;23.380;2023-05-24T12:54:44;93813.94;;;27.17;30.75
11808;BME280;5961;42.640;23.380;2023-05-24T12:57:11;93809.25;;;27.18;31.52
11808;BME280;5961;42.640;23.380;2023-05-24T12:59:37;93818.16;;;27.31;31.78
11808;BME280;5961;42.640;23.380;2023-05-24T13:02:06;93817.16;;;27.38;31.52
11808;BME280;5961;42.640;23.380;2023-05-24T13:04:33;93820.09;;;27.43;32.01